sensor_id;sensor_type;location;lat;lon;timestamp;P1;durP1;ratioP1;P2;durP2;ratioP2
11346;SDS011;5728;42.722;23.258;2022-12-07T01:53:55;29.00;;;15.17;;
11346;SDS011;5728;42.722;23.258;2022-12-07T01:56:23;25.53;;;13.57;;
11346;SDS011;5728;42.722;23.258;2022-12-07T01:58:52;28.03;;;14.90;;
11346;SDS011;5728;42.722;23.258;2022-12-07T02:01:21;28.40;;;15.57;;
11346;SDS011;5728;42.722;23.258;2022-12-07T02:03:48;23.37;;;14.97;;
11346;SDS011;5728;42.722;23.258;2022-12-07T02:06:15;25.87;;;14.90;;
11346;SDS011;5728;42.722;23.258;2022-12-07T02:08:46;31.83;;;15.03;;
11346;SDS011;5728;42.722;23.258;2022-12-07T02:11:13;27.27;;;14.67;;
11346;SDS011;5728;42.722;23.258;2022-12-07T02:13:41;24.37;;;14.70;;
11346;SDS011;5728;42.722;23.258;2022-12-07T02:16:13;30.20;;;14.83;;
11346;SDS011;5728;42.722;23.258;2022-12-07T02:18:55;25.47;;;14.57;;
11346;SDS011;5728;42.722;23.258;2022-12-07T02:21:35;24.80;;;14.27;;
11346;SDS011;5728;42.722;23.258;2022-12-07T02:24:22;27.37;;;15.00;;
11346;SDS011;5728;42.722;23.258;2022-12-07T02:27:07;21.53;;;13.70;;
11346;SDS011;5728;42.722;23.258;2022-12-07T02:29:57;26.93;;;15.00;;
11346;SDS011;5728;42.722;23.258;2022-12-07T02:32:27;24.70;;;14.67;;
11346;SDS011;5728;42.722;23.258;2022-12-07T02:35:05;24.63;;;14.93;;
11346;SDS011;5728;42.722;23.258;2022-12-07T02:37:35;25.00;;;13.93;;
11346;SDS011;5728;42.722;23.258;2022-12-07T02:40:07;27.17;;;14.87;;
11346;SDS011;5728;42.722;23.258;2022-12-07T02:42:40;21.93;;;13.67;;
11346;SDS011;5728;42.722;23.258;2022-12-07T02:45:13;25.87;;;14.70;;
11346;SDS011;5728;42.722;23.258;2022-12-07T02:47:44;23.33;;;13.43;;
11346;SDS011;5728;42.722;23.258;2022-12-07T02:50:14;29.10;;;14.77;;
11346;SDS011;5728;42.722;23.258;2022-12-07T02:52:44;28.77;;;15.30;;
11346;SDS011;5728;42.722;23.258;2022-12-07T02:55:11;24.00;;;14.47;;
11346;SDS011;5728;42.722;23.258;2022-12-07T02:57:44;27.67;;;15.53;;
11346;SDS011;5728;42.722;23.258;2022-12-07T03:00:30;28.73;;;15.30;;
11346;SDS011;5728;42.722;23.258;2022-12-07T03:03:00;30.40;;;15.23;;
11346;SDS011;5728;42.722;23.258;2022-12-07T03:05:37;26.63;;;14.90;;
11346;SDS011;5728;42.722;23.258;2022-12-07T03:08:19;26.70;;;15.17;;
11346;SDS011;5728;42.722;23.258;2022-12-07T03:10:56;27.10;;;14.70;;
11346;SDS011;5728;42.722;23.258;2022-12-07T03:13:28;27.53;;;16.13;;
11346;SDS011;5728;42.722;23.258;2022-12-07T03:16:01;30.47;;;15.83;;
11346;SDS011;5728;42.722;23.258;2022-12-07T03:18:33;25.87;;;15.30;;
11346;SDS011;5728;42.722;23.258;2022-12-07T03:21:04;25.67;;;15.03;;
11346;SDS011;5728;42.722;23.258;2022-12-07T03:23:35;27.07;;;15.00;;
11346;SDS011;5728;42.722;23.258;2022-12-07T03:26:06;25.80;;;14.70;;
11346;SDS011;5728;42.722;23.258;2022-12-07T03:28:38;25.20;;;15.27;;
11346;SDS011;5728;42.722;23.258;2022-12-07T03:31:11;24.90;;;14.17;;
11346;SDS011;5728;42.722;23.258;2022-12-07T03:33:43;23.30;;;14.93;;
11346;SDS011;5728;42.722;23.258;2022-12-07T03:36:17;29.00;;;15.07;;
11346;SDS011;5728;42.722;23.258;2022-12-07T03:38:49;28.77;;;14.73;;
11346;SDS011;5728;42.722;23.258;2022-12-07T03:41:22;23.67;;;14.17;;
11346;SDS011;5728;42.722;23.258;2022-12-07T03:43:51;26.60;;;14.03;;
11346;SDS011;5728;42.722;23.258;2022-12-07T03:46:23;22.47;;;13.87;;
11346;SDS011;5728;42.722;23.258;2022-12-07T03:49:00;27.13;;;14.33;;
11346;SDS011;5728;42.722;23.258;2022-12-07T03:51:36;27.73;;;15.83;;
11346;SDS011;5728;42.722;23.258;2022-12-07T03:54:09;26.20;;;14.87;;
11346;SDS011;5728;42.722;23.258;2022-12-07T03:56:40;26.57;;;15.47;;
11346;SDS011;5728;42.722;23.258;2022-12-07T03:59:09;27.13;;;15.00;;
11346;SDS011;5728;42.722;23.258;2022-12-07T04:01:38;25.70;;;15.27;;
11346;SDS011;5728;42.722;23.258;2022-12-07T04:04:07;27.10;;;14.33;;
11346;SDS011;5728;42.722;23.258;2022-12-07T04:06:34;30.37;;;15.17;;
11346;SDS011;5728;42.722;23.258;2022-12-07T04:09:01;26.70;;;15.47;;
11346;SDS011;5728;42.722;23.258;2022-12-07T04:11:28;34.77;;;16.37;;
11346;SDS011;5728;42.722;23.258;2022-12-07T04:13:55;28.40;;;16.40;;
11346;SDS011;5728;42.722;23.258;2022-12-07T04:16:40;30.37;;;15.97;;
11346;SDS011;5728;42.722;23.258;2022-12-07T04:19:07;28.40;;;15.23;;
11346;SDS011;5728;42.722;23.258;2022-12-07T04:21:33;26.37;;;14.70;;
11346;SDS011;5728;42.722;23.258;2022-12-07T04:24:00;27.60;;;14.57;;
11346;SDS011;5728;42.722;23.258;2022-12-07T04:26:27;26.77;;;15.17;;
11346;SDS011;5728;42.722;23.258;2022-12-07T04:28:53;30.97;;;15.20;;
11346;SDS011;5728;42.722;23.258;2022-12-07T04:31:21;24.23;;;14.67;;
11346;SDS011;5728;42.722;23.258;2022-12-07T04:33:49;22.47;;;14.47;;
11346;SDS011;5728;42.722;23.258;2022-12-07T04:36:16;25.53;;;14.60;;
11346;SDS011;5728;42.722;23.258;2022-12-07T04:38:44;28.80;;;15.57;;
11346;SDS011;5728;42.722;23.258;2022-12-07T04:41:11;29.27;;;15.90;;
11346;SDS011;5728;42.722;23.258;2022-12-07T04:43:38;28.37;;;14.03;;
11346;SDS011;5728;42.722;23.258;2022-12-07T04:46:05;25.27;;;14.47;;
11346;SDS011;5728;42.722;23.258;2022-12-07T04:48:32;25.40;;;15.37;;
11346;SDS011;5728;42.722;23.258;2022-12-07T04:51:01;26.27;;;15.17;;
11346;SDS011;5728;42.722;23.258;2022-12-07T04:53:28;29.67;;;15.80;;
11346;SDS011;5728;42.722;23.258;2022-12-07T04:55:55;28.63;;;15.60;;
11346;SDS011;5728;42.722;23.258;2022-12-07T04:58:22;29.07;;;15.53;;
11346;SDS011;5728;42.722;23.258;2022-12-07T05:00:48;27.60;;;16.20;;
11346;SDS011;5728;42.722;23.258;2022-12-07T05:03:16;35.87;;;16.43;;
11346;SDS011;5728;42.722;23.258;2022-12-07T05:05:43;32.57;;;15.47;;
11346;SDS011;5728;42.722;23.258;2022-12-07T05:08:11;31.33;;;15.03;;
11346;SDS011;5728;42.722;23.258;2022-12-07T05:10:38;28.10;;;15.77;;
11346;SDS011;5728;42.722;23.258;2022-12-07T05:13:05;25.30;;;15.27;;
11346;SDS011;5728;42.722;23.258;2022-12-07T05:15:31;27.13;;;15.37;;
11346;SDS011;5728;42.722;23.258;2022-12-07T05:17:58;29.20;;;15.37;;
11346;SDS011;5728;42.722;23.258;2022-12-07T05:20:25;24.67;;;14.43;;
11346;SDS011;5728;42.722;23.258;2022-12-07T05:22:51;29.63;;;16.23;;
11346;SDS011;5728;42.722;23.258;2022-12-07T05:25:19;29.53;;;14.50;;
11346;SDS011;5728;42.722;23.258;2022-12-07T05:27:46;28.00;;;16.30;;
11346;SDS011;5728;42.722;23.258;2022-12-07T05:30:13;33.80;;;18.67;;
11346;SDS011;5728;42.722;23.258;2022-12-07T05:32:40;31.47;;;17.23;;
11346;SDS011;5728;42.722;23.258;2022-12-07T05:35:07;33.57;;;17.97;;
11346;SDS011;5728;42.722;23.258;2022-12-07T05:37:34;35.47;;;17.77;;
11346;SDS011;5728;42.722;23.258;2022-12-07T05:40:01;30.00;;;17.03;;
11346;SDS011;5728;42.722;23.258;2022-12-07T05:42:29;28.03;;;17.27;;
11346;SDS011;5728;42.722;23.258;2022-12-07T05:44:55;30.53;;;17.10;;
11346;SDS011;5728;42.722;23.258;2022-12-07T05:47:21;30.03;;;18.40;;
11346;SDS011;5728;42.722;23.258;2022-12-07T05:49:48;30.37;;;15.83;;
11346;SDS011;5728;42.722;23.258;2022-12-07T05:52:15;31.47;;;17.97;;
11346;SDS011;5728;42.722;23.258;2022-12-07T05:54:42;27.70;;;16.30;;
11346;SDS011;5728;42.722;23.258;2022-12-07T05:57:08;32.23;;;18.47;;
11346;SDS011;5728;42.722;23.258;2022-12-07T05:59:37;33.13;;;18.07;;
11346;SDS011;5728;42.722;23.258;2022-12-07T06:02:04;33.77;;;17.80;;
11346;SDS011;5728;42.722;23.258;2022-12-07T06:04:32;32.60;;;18.10;;
11346;SDS011;5728;42.722;23.258;2022-12-07T06:07:02;34.40;;;18.83;;
11346;SDS011;5728;42.722;23.258;2022-12-07T06:09:29;37.77;;;21.07;;
11346;SDS011;5728;42.722;23.258;2022-12-07T06:11:56;38.13;;;23.03;;
11346;SDS011;5728;42.722;23.258;2022-12-07T06:14:43;50.37;;;25.73;;
11346;SDS011;5728;42.722;23.258;2022-12-07T06:17:10;48.37;;;26.13;;
11346;SDS011;5728;42.722;23.258;2022-12-07T06:19:38;44.37;;;24.73;;
11346;SDS011;5728;42.722;23.258;2022-12-07T06:22:05;42.23;;;23.70;;
11346;SDS011;5728;42.722;23.258;2022-12-07T06:24:32;44.97;;;23.37;;
11346;SDS011;5728;42.722;23.258;2022-12-07T06:26:59;44.80;;;24.93;;
11346;SDS011;5728;42.722;23.258;2022-12-07T06:29:26;37.27;;;21.63;;
11346;SDS011;5728;42.722;23.258;2022-12-07T06:31:54;31.27;;;18.63;;
11346;SDS011;5728;42.722;23.258;2022-12-07T06:34:21;33.53;;;19.53;;
11346;SDS011;5728;42.722;23.258;2022-12-07T06:36:50;29.37;;;18.87;;
11346;SDS011;5728;42.722;23.258;2022-12-07T06:39:18;31.03;;;19.37;;
11346;SDS011;5728;42.722;23.258;2022-12-07T06:41:46;35.37;;;18.83;;
11346;SDS011;5728;42.722;23.258;2022-12-07T06:44:13;32.93;;;18.97;;
11346;SDS011;5728;42.722;23.258;2022-12-07T06:46:40;31.47;;;16.97;;
11346;SDS011;5728;42.722;23.258;2022-12-07T06:49:08;34.33;;;18.77;;
11346;SDS011;5728;42.722;23.258;2022-12-07T06:51:35;32.50;;;17.93;;
11346;SDS011;5728;42.722;23.258;2022-12-07T06:54:06;29.00;;;16.50;;
11346;SDS011;5728;42.722;23.258;2022-12-07T06:56:32;25.73;;;16.40;;
11346;SDS011;5728;42.722;23.258;2022-12-07T06:58:59;30.27;;;17.97;;
11346;SDS011;5728;42.722;23.258;2022-12-07T07:01:26;31.30;;;16.80;;
11346;SDS011;5728;42.722;23.258;2022-12-07T07:03:53;35.30;;;17.83;;
11346;SDS011;5728;42.722;23.258;2022-12-07T07:06:21;31.40;;;17.83;;
11346;SDS011;5728;42.722;23.258;2022-12-07T07:08:48;36.00;;;18.73;;
11346;SDS011;5728;42.722;23.258;2022-12-07T07:11:14;32.43;;;18.50;;
11346;SDS011;5728;42.722;23.258;2022-12-07T07:13:41;33.73;;;17.60;;
11346;SDS011;5728;42.722;23.258;2022-12-07T07:16:08;31.80;;;18.33;;
11346;SDS011;5728;42.722;23.258;2022-12-07T07:18:35;32.87;;;18.40;;
11346;SDS011;5728;42.722;23.258;2022-12-07T07:21:02;25.70;;;17.17;;
11346;SDS011;5728;42.722;23.258;2022-12-07T07:23:31;37.30;;;19.00;;
11346;SDS011;5728;42.722;23.258;2022-12-07T07:25:58;32.13;;;16.70;;
11346;SDS011;5728;42.722;23.258;2022-12-07T07:28:25;29.87;;;16.67;;
11346;SDS011;5728;42.722;23.258;2022-12-07T07:30:51;32.90;;;17.40;;
11346;SDS011;5728;42.722;23.258;2022-12-07T07:33:18;34.40;;;18.73;;
11346;SDS011;5728;42.722;23.258;2022-12-07T07:35:45;33.90;;;17.60;;
11346;SDS011;5728;42.722;23.258;2022-12-07T07:38:12;31.73;;;18.87;;
11346;SDS011;5728;42.722;23.258;2022-12-07T07:40:40;31.23;;;16.27;;
11346;SDS011;5728;42.722;23.258;2022-12-07T07:43:07;32.77;;;17.37;;
11346;SDS011;5728;42.722;23.258;2022-12-07T07:45:33;32.73;;;17.60;;
11346;SDS011;5728;42.722;23.258;2022-12-07T07:48:00;32.30;;;18.40;;
11346;SDS011;5728;42.722;23.258;2022-12-07T07:50:27;34.03;;;18.67;;
11346;SDS011;5728;42.722;23.258;2022-12-07T07:52:55;30.77;;;17.23;;
11346;SDS011;5728;42.722;23.258;2022-12-07T07:55:23;35.03;;;19.33;;
11346;SDS011;5728;42.722;23.258;2022-12-07T07:57:51;32.07;;;19.23;;
11346;SDS011;5728;42.722;23.258;2022-12-07T08:00:18;37.57;;;19.60;;
11346;SDS011;5728;42.722;23.258;2022-12-07T08:02:46;35.10;;;20.50;;
11346;SDS011;5728;42.722;23.258;2022-12-07T08:05:13;39.73;;;22.03;;
11346;SDS011;5728;42.722;23.258;2022-12-07T08:07:40;35.50;;;19.97;;
11346;SDS011;5728;42.722;23.258;2022-12-07T08:10:08;38.93;;;19.97;;
11346;SDS011;5728;42.722;23.258;2022-12-07T08:12:37;41.03;;;21.57;;
11346;SDS011;5728;42.722;23.258;2022-12-07T08:15:27;32.43;;;18.23;;
11346;SDS011;5728;42.722;23.258;2022-12-07T08:17:55;37.63;;;18.60;;
11346;SDS011;5728;42.722;23.258;2022-12-07T08:20:22;34.80;;;18.97;;
11346;SDS011;5728;42.722;23.258;2022-12-07T08:22:49;34.93;;;18.50;;
11346;SDS011;5728;42.722;23.258;2022-12-07T08:25:15;38.37;;;19.20;;
11346;SDS011;5728;42.722;23.258;2022-12-07T08:27:42;38.40;;;19.90;;
11346;SDS011;5728;42.722;23.258;2022-12-07T08:30:09;47.50;;;23.83;;
11346;SDS011;5728;42.722;23.258;2022-12-07T08:32:38;49.60;;;23.40;;
11346;SDS011;5728;42.722;23.258;2022-12-07T08:35:05;44.23;;;23.17;;
11346;SDS011;5728;42.722;23.258;2022-12-07T08:37:32;38.23;;;22.10;;
11346;SDS011;5728;42.722;23.258;2022-12-07T08:39:59;36.53;;;22.67;;
11346;SDS011;5728;42.722;23.258;2022-12-07T08:42:26;38.50;;;22.53;;
11346;SDS011;5728;42.722;23.258;2022-12-07T08:44:55;34.30;;;21.40;;
11346;SDS011;5728;42.722;23.258;2022-12-07T08:47:22;35.00;;;20.03;;
11346;SDS011;5728;42.722;23.258;2022-12-07T08:49:52;36.13;;;21.60;;
11346;SDS011;5728;42.722;23.258;2022-12-07T08:52:20;44.77;;;25.33;;
11346;SDS011;5728;42.722;23.258;2022-12-07T08:54:47;43.83;;;21.17;;
11346;SDS011;5728;42.722;23.258;2022-12-07T08:57:14;40.27;;;23.30;;
11346;SDS011;5728;42.722;23.258;2022-12-07T08:59:41;50.77;;;23.73;;
11346;SDS011;5728;42.722;23.258;2022-12-07T09:02:08;41.70;;;23.97;;
11346;SDS011;5728;42.722;23.258;2022-12-07T09:04:35;37.50;;;21.93;;
11346;SDS011;5728;42.722;23.258;2022-12-07T09:07:03;48.10;;;25.90;;
11346;SDS011;5728;42.722;23.258;2022-12-07T09:09:31;43.47;;;25.03;;
11346;SDS011;5728;42.722;23.258;2022-12-07T09:11:57;42.17;;;22.57;;
11346;SDS011;5728;42.722;23.258;2022-12-07T09:14:24;39.40;;;23.53;;
11346;SDS011;5728;42.722;23.258;2022-12-07T09:16:51;42.23;;;23.37;;
11346;SDS011;5728;42.722;23.258;2022-12-07T09:19:18;42.00;;;22.93;;
11346;SDS011;5728;42.722;23.258;2022-12-07T09:21:45;36.07;;;21.40;;
11346;SDS011;5728;42.722;23.258;2022-12-07T09:24:13;36.17;;;22.60;;
11346;SDS011;5728;42.722;23.258;2022-12-07T09:26:40;42.30;;;22.23;;
11346;SDS011;5728;42.722;23.258;2022-12-07T09:29:06;35.90;;;21.20;;
11346;SDS011;5728;42.722;23.258;2022-12-07T09:31:35;46.23;;;23.50;;
11346;SDS011;5728;42.722;23.258;2022-12-07T09:34:02;42.23;;;24.50;;
11346;SDS011;5728;42.722;23.258;2022-12-07T09:36:29;46.97;;;24.27;;
11346;SDS011;5728;42.722;23.258;2022-12-07T09:38:57;55.73;;;24.50;;
11346;SDS011;5728;42.722;23.258;2022-12-07T09:41:25;44.80;;;24.80;;
11346;SDS011;5728;42.722;23.258;2022-12-07T09:43:53;38.93;;;22.57;;
11346;SDS011;5728;42.722;23.258;2022-12-07T09:46:28;43.83;;;24.10;;
11346;SDS011;5728;42.722;23.258;2022-12-07T09:49:01;46.20;;;25.73;;
11346;SDS011;5728;42.722;23.258;2022-12-07T09:51:28;51.67;;;25.33;;
11346;SDS011;5728;42.722;23.258;2022-12-07T09:53:55;46.13;;;24.67;;
11346;SDS011;5728;42.722;23.258;2022-12-07T09:56:25;40.90;;;22.33;;
11346;SDS011;5728;42.722;23.258;2022-12-07T09:58:54;40.37;;;23.67;;
11346;SDS011;5728;42.722;23.258;2022-12-07T10:01:27;44.47;;;23.27;;
11346;SDS011;5728;42.722;23.258;2022-12-07T10:03:58;53.37;;;25.17;;
11346;SDS011;5728;42.722;23.258;2022-12-07T10:06:28;46.73;;;25.03;;
11346;SDS011;5728;42.722;23.258;2022-12-07T10:08:55;45.43;;;24.77;;
11346;SDS011;5728;42.722;23.258;2022-12-07T10:11:22;49.97;;;24.43;;
11346;SDS011;5728;42.722;23.258;2022-12-07T10:13:51;41.80;;;24.43;;
11346;SDS011;5728;42.722;23.258;2022-12-07T10:16:28;48.97;;;24.67;;
11346;SDS011;5728;42.722;23.258;2022-12-07T10:19:20;38.67;;;23.60;;
11346;SDS011;5728;42.722;23.258;2022-12-07T10:21:59;44.20;;;23.53;;
11346;SDS011;5728;42.722;23.258;2022-12-07T10:24:34;41.70;;;24.23;;
11346;SDS011;5728;42.722;23.258;2022-12-07T10:27:02;51.37;;;23.47;;
11346;SDS011;5728;42.722;23.258;2022-12-07T10:29:31;44.73;;;23.30;;
11346;SDS011;5728;42.722;23.258;2022-12-07T10:32:01;39.87;;;23.17;;
11346;SDS011;5728;42.722;23.258;2022-12-07T10:34:29;46.83;;;25.93;;
11346;SDS011;5728;42.722;23.258;2022-12-07T10:39:45;45.27;;;24.03;;
11346;SDS011;5728;42.722;23.258;2022-12-07T10:42:17;47.67;;;25.53;;
11346;SDS011;5728;42.722;23.258;2022-12-07T10:44:47;45.33;;;24.83;;
11346;SDS011;5728;42.722;23.258;2022-12-07T10:47:20;48.67;;;24.73;;
11346;SDS011;5728;42.722;23.258;2022-12-07T10:53:11;48.10;;;22.97;;
11346;SDS011;5728;42.722;23.258;2022-12-07T10:55:53;38.70;;;19.93;;
11346;SDS011;5728;42.722;23.258;2022-12-07T10:58:32;34.90;;;20.13;;
11346;SDS011;5728;42.722;23.258;2022-12-07T11:01:16;38.00;;;19.57;;
11346;SDS011;5728;42.722;23.258;2022-12-07T11:03:55;37.50;;;21.33;;
11346;SDS011;5728;42.722;23.258;2022-12-07T11:06:42;32.87;;;19.23;;
11346;SDS011;5728;42.722;23.258;2022-12-07T11:09:28;41.83;;;23.20;;
11346;SDS011;5728;42.722;23.258;2022-12-07T11:12:09;42.70;;;22.37;;
11346;SDS011;5728;42.722;23.258;2022-12-07T11:14:44;39.00;;;21.40;;
11346;SDS011;5728;42.722;23.258;2022-12-07T11:17:22;43.63;;;24.20;;
11346;SDS011;5728;42.722;23.258;2022-12-07T11:20:00;50.20;;;24.60;;
11346;SDS011;5728;42.722;23.258;2022-12-07T11:22:34;43.93;;;23.50;;
11346;SDS011;5728;42.722;23.258;2022-12-07T11:25:14;35.87;;;23.37;;
11346;SDS011;5728;42.722;23.258;2022-12-07T11:27:47;41.67;;;23.83;;
11346;SDS011;5728;42.722;23.258;2022-12-07T11:30:21;36.77;;;21.40;;
11346;SDS011;5728;42.722;23.258;2022-12-07T11:33:00;38.23;;;21.30;;
11346;SDS011;5728;42.722;23.258;2022-12-07T11:35:43;48.37;;;22.97;;
11346;SDS011;5728;42.722;23.258;2022-12-07T11:38:18;43.10;;;21.83;;
11346;SDS011;5728;42.722;23.258;2022-12-07T11:40:49;36.60;;;21.07;;
11346;SDS011;5728;42.722;23.258;2022-12-07T11:43:21;41.33;;;21.03;;
11346;SDS011;5728;42.722;23.258;2022-12-07T11:45:53;28.97;;;18.67;;
11346;SDS011;5728;42.722;23.258;2022-12-07T11:48:30;34.60;;;21.23;;
11346;SDS011;5728;42.722;23.258;2022-12-07T11:51:00;28.87;;;17.50;;
11346;SDS011;5728;42.722;23.258;2022-12-07T11:53:30;29.67;;;15.13;;
11346;SDS011;5728;42.722;23.258;2022-12-07T11:56:02;29.88;;;14.57;;
11346;SDS011;5728;42.722;23.258;2022-12-07T12:01:26;28.95;;;15.45;;
11346;SDS011;5728;42.722;23.258;2022-12-07T12:04:05;27.40;;;17.08;;
11346;SDS011;5728;42.722;23.258;2022-12-07T12:06:44;35.63;;;16.10;;
11346;SDS011;5728;42.722;23.258;2022-12-07T12:09:11;25.20;;;15.10;;
11346;SDS011;5728;42.722;23.258;2022-12-07T12:11:47;25.02;;;14.38;;
11346;SDS011;5728;42.722;23.258;2022-12-07T12:14:42;23.65;;;14.18;;
11346;SDS011;5728;42.722;23.258;2022-12-07T12:17:35;33.42;;;14.90;;
11346;SDS011;5728;42.722;23.258;2022-12-07T12:20:19;22.70;;;13.95;;
11346;SDS011;5728;42.722;23.258;2022-12-07T12:22:50;26.38;;;13.85;;
11346;SDS011;5728;42.722;23.258;2022-12-07T12:25:21;27.48;;;14.18;;
11346;SDS011;5728;42.722;23.258;2022-12-07T12:27:51;24.30;;;14.10;;
11346;SDS011;5728;42.722;23.258;2022-12-07T12:30:25;26.10;;;12.95;;
11346;SDS011;5728;42.722;23.258;2022-12-07T12:33:01;24.27;;;12.85;;
11346;SDS011;5728;42.722;23.258;2022-12-07T12:35:33;28.10;;;12.15;;
11346;SDS011;5728;42.722;23.258;2022-12-07T12:40:53;22.48;;;12.68;;
11346;SDS011;5728;42.722;23.258;2022-12-07T12:43:40;23.20;;;12.73;;
11346;SDS011;5728;42.722;23.258;2022-12-07T12:52:08;20.25;;;13.00;;
11346;SDS011;5728;42.722;23.258;2022-12-07T12:55:15;27.80;;;13.80;;
11346;SDS011;5728;42.722;23.258;2022-12-07T12:57:46;20.33;;;13.07;;
11346;SDS011;5728;42.722;23.258;2022-12-07T13:00:18;28.25;;;13.43;;
11346;SDS011;5728;42.722;23.258;2022-12-07T13:02:49;25.00;;;12.60;;
11346;SDS011;5728;42.722;23.258;2022-12-07T13:05:18;25.13;;;12.95;;
11346;SDS011;5728;42.722;23.258;2022-12-07T13:07:59;22.88;;;13.02;;
11346;SDS011;5728;42.722;23.258;2022-12-07T13:10:38;23.85;;;15.45;;
11346;SDS011;5728;42.722;23.258;2022-12-07T13:22:38;18.50;;;9.73;;
11346;SDS011;5728;42.722;23.258;2022-12-07T13:25:30;20.67;;;10.67;;
11346;SDS011;5728;42.722;23.258;2022-12-07T13:28:06;23.60;;;10.85;;
11346;SDS011;5728;42.722;23.258;2022-12-07T13:30:43;21.17;;;11.45;;
11346;SDS011;5728;42.722;23.258;2022-12-07T13:33:12;31.37;;;12.33;;
11346;SDS011;5728;42.722;23.258;2022-12-07T13:35:43;22.17;;;11.47;;
11346;SDS011;5728;42.722;23.258;2022-12-07T13:38:16;21.77;;;12.23;;
11346;SDS011;5728;42.722;23.258;2022-12-07T13:41:00;23.53;;;11.73;;
11346;SDS011;5728;42.722;23.258;2022-12-07T13:43:42;21.00;;;13.30;;
11346;SDS011;5728;42.722;23.258;2022-12-07T13:46:10;23.00;;;11.23;;
11346;SDS011;5728;42.722;23.258;2022-12-07T13:48:43;24.40;;;12.53;;
11346;SDS011;5728;42.722;23.258;2022-12-07T13:51:17;22.00;;;11.63;;
11346;SDS011;5728;42.722;23.258;2022-12-07T13:53:48;17.00;;;11.50;;
11346;SDS011;5728;42.722;23.258;2022-12-07T13:56:17;21.30;;;12.57;;
11346;SDS011;5728;42.722;23.258;2022-12-07T13:58:47;21.47;;;13.50;;
11346;SDS011;5728;42.722;23.258;2022-12-07T14:01:14;22.43;;;11.73;;
11346;SDS011;5728;42.722;23.258;2022-12-07T14:03:41;22.30;;;12.17;;
11346;SDS011;5728;42.722;23.258;2022-12-07T14:06:15;16.87;;;11.60;;
11346;SDS011;5728;42.722;23.258;2022-12-07T14:08:45;20.87;;;11.90;;
11346;SDS011;5728;42.722;23.258;2022-12-07T14:11:16;18.53;;;12.10;;
11346;SDS011;5728;42.722;23.258;2022-12-07T14:13:56;20.30;;;12.70;;
11346;SDS011;5728;42.722;23.258;2022-12-07T14:16:25;23.03;;;13.23;;
11346;SDS011;5728;42.722;23.258;2022-12-07T14:18:54;21.37;;;12.97;;
11346;SDS011;5728;42.722;23.258;2022-12-07T14:21:22;22.27;;;12.57;;
11346;SDS011;5728;42.722;23.258;2022-12-07T14:24:11;25.03;;;13.10;;
11346;SDS011;5728;42.722;23.258;2022-12-07T14:26:44;19.33;;;12.33;;
11346;SDS011;5728;42.722;23.258;2022-12-07T14:29:19;26.43;;;12.40;;
11346;SDS011;5728;42.722;23.258;2022-12-07T14:31:57;19.27;;;11.33;;
11346;SDS011;5728;42.722;23.258;2022-12-07T14:34:37;27.57;;;12.90;;
11346;SDS011;5728;42.722;23.258;2022-12-07T14:37:04;24.20;;;12.63;;
11346;SDS011;5728;42.722;23.258;2022-12-07T14:39:34;24.80;;;12.67;;
11346;SDS011;5728;42.722;23.258;2022-12-07T14:42:02;26.60;;;12.50;;
11346;SDS011;5728;42.722;23.258;2022-12-07T14:44:29;36.47;;;12.73;;
11346;SDS011;5728;42.722;23.258;2022-12-07T14:46:56;21.90;;;12.77;;
11346;SDS011;5728;42.722;23.258;2022-12-07T14:49:22;21.43;;;12.30;;
11346;SDS011;5728;42.722;23.258;2022-12-07T14:51:49;27.73;;;12.60;;
11346;SDS011;5728;42.722;23.258;2022-12-07T14:54:16;34.73;;;13.27;;
11346;SDS011;5728;42.722;23.258;2022-12-07T14:56:45;30.87;;;13.77;;
11346;SDS011;5728;42.722;23.258;2022-12-07T14:59:16;26.20;;;13.20;;
11346;SDS011;5728;42.722;23.258;2022-12-07T15:01:44;23.13;;;12.43;;
11346;SDS011;5728;42.722;23.258;2022-12-07T15:04:11;22.87;;;12.57;;
11346;SDS011;5728;42.722;23.258;2022-12-07T15:06:38;28.53;;;12.43;;
11346;SDS011;5728;42.722;23.258;2022-12-07T15:09:05;24.23;;;13.77;;
11346;SDS011;5728;42.722;23.258;2022-12-07T15:11:31;40.83;;;15.10;;
11346;SDS011;5728;42.722;23.258;2022-12-07T15:13:58;35.13;;;13.37;;
11346;SDS011;5728;42.722;23.258;2022-12-07T15:16:38;38.20;;;15.03;;
11346;SDS011;5728;42.722;23.258;2022-12-07T15:19:06;33.37;;;15.27;;
11346;SDS011;5728;42.722;23.258;2022-12-07T15:21:36;31.87;;;15.60;;
11346;SDS011;5728;42.722;23.258;2022-12-07T15:24:03;35.10;;;16.23;;
11346;SDS011;5728;42.722;23.258;2022-12-07T15:26:30;55.20;;;19.83;;
11346;SDS011;5728;42.722;23.258;2022-12-07T15:28:57;48.13;;;21.83;;
11346;SDS011;5728;42.722;23.258;2022-12-07T15:31:24;41.80;;;21.40;;
11346;SDS011;5728;42.722;23.258;2022-12-07T15:33:52;53.10;;;21.03;;
11346;SDS011;5728;42.722;23.258;2022-12-07T15:36:20;36.20;;;20.70;;
11346;SDS011;5728;42.722;23.258;2022-12-07T15:38:48;36.90;;;19.63;;
11346;SDS011;5728;42.722;23.258;2022-12-07T15:41:16;43.90;;;22.03;;
11346;SDS011;5728;42.722;23.258;2022-12-07T15:43:43;34.97;;;19.60;;
11346;SDS011;5728;42.722;23.258;2022-12-07T15:46:29;48.10;;;22.93;;
11346;SDS011;5728;42.722;23.258;2022-12-07T15:48:58;53.83;;;21.10;;
11346;SDS011;5728;42.722;23.258;2022-12-07T15:51:25;46.20;;;23.50;;
11346;SDS011;5728;42.722;23.258;2022-12-07T15:53:52;46.70;;;20.10;;
11346;SDS011;5728;42.722;23.258;2022-12-07T15:56:19;47.97;;;22.37;;
11346;SDS011;5728;42.722;23.258;2022-12-07T15:58:46;34.37;;;19.80;;
11346;SDS011;5728;42.722;23.258;2022-12-07T16:01:13;37.30;;;19.70;;
11346;SDS011;5728;42.722;23.258;2022-12-07T16:03:42;44.37;;;21.50;;
11346;SDS011;5728;42.722;23.258;2022-12-07T16:06:10;40.00;;;19.63;;
11346;SDS011;5728;42.722;23.258;2022-12-07T16:08:41;50.33;;;20.90;;
11346;SDS011;5728;42.722;23.258;2022-12-07T16:11:09;42.27;;;22.33;;
11346;SDS011;5728;42.722;23.258;2022-12-07T16:13:36;54.63;;;24.97;;
11346;SDS011;5728;42.722;23.258;2022-12-07T16:16:04;45.10;;;22.03;;
11346;SDS011;5728;42.722;23.258;2022-12-07T16:18:32;40.50;;;19.83;;
11346;SDS011;5728;42.722;23.258;2022-12-07T16:20:59;47.53;;;23.47;;
11346;SDS011;5728;42.722;23.258;2022-12-07T16:23:28;53.27;;;24.40;;
11346;SDS011;5728;42.722;23.258;2022-12-07T16:25:55;69.30;;;27.53;;
11346;SDS011;5728;42.722;23.258;2022-12-07T16:28:30;55.83;;;23.53;;
11346;SDS011;5728;42.722;23.258;2022-12-07T16:31:07;49.13;;;21.47;;
11346;SDS011;5728;42.722;23.258;2022-12-07T16:33:37;44.73;;;22.30;;
11346;SDS011;5728;42.722;23.258;2022-12-07T16:36:06;47.73;;;24.07;;
11346;SDS011;5728;42.722;23.258;2022-12-07T16:38:35;43.83;;;21.23;;
11346;SDS011;5728;42.722;23.258;2022-12-07T16:41:03;77.83;;;32.37;;
11346;SDS011;5728;42.722;23.258;2022-12-07T16:43:30;49.70;;;25.77;;
11346;SDS011;5728;42.722;23.258;2022-12-07T16:45:57;62.63;;;28.57;;
11346;SDS011;5728;42.722;23.258;2022-12-07T16:48:23;55.40;;;27.07;;
11346;SDS011;5728;42.722;23.258;2022-12-07T16:50:50;93.93;;;43.93;;
11346;SDS011;5728;42.722;23.258;2022-12-07T16:53:18;100.20;;;47.40;;
11346;SDS011;5728;42.722;23.258;2022-12-07T16:55:48;81.13;;;36.63;;
11346;SDS011;5728;42.722;23.258;2022-12-07T16:58:15;50.67;;;26.47;;
11346;SDS011;5728;42.722;23.258;2022-12-07T17:00:43;49.97;;;26.73;;